Time;durP1;ratioP1;P1;durP2;ratioP2;P2;SDS_P1;SDS_P2;PMS_P1;PMS_P2;Temp;Humidity;BMP_temperature;BMP_pressure;BME280_temperature;BME280_humidity;BME280_pressure;Samples;Min_cycle;Max_cycle;Signal;HPM_P1;HPM_P2
2022/09/22 00:01:57;;;;;;;;;;;14.80;99.90;;;;;;4992549;28;19964;-79
2022/09/22 00:04:22;;;;;;;;;;;14.70;99.90;;;;;;4995250;28;19906;-79
2022/09/22 00:06:50;;;;;;;;;;;14.80;99.90;;;;;;4992013;28;19960;-77
2022/09/22 00:09:18;;;;;;;;;;;14.70;99.90;;;;;;4992036;28;19918;-78
2022/09/22 00:11:44;;;;;;;;;;;14.50;99.90;;;;;;4991202;28;19916;-77
2022/09/22 00:14:22;;;;;;;;;;;14.60;99.90;;;;;;4988544;28;19917;-77
2022/09/22 00:16:50;;;;;;;;;;;14.60;99.90;;;;;;4990079;28;19959;-79
2022/09/22 00:19:18;;;;;;;;;;;14.60;99.90;;;;;;4988508;28;20035;-78
2022/09/22 00:21:44;;;;;;;;;;;14.50;99.90;;;;;;4967752;28;20399;-78
2022/09/22 00:24:10;;;;;;;;;;;14.50;99.90;;;;;;4990636;28;20008;-77
2022/09/22 00:26:36;;;;;;;;;;;14.40;99.90;;;;;;4973215;28;20213;-78
2022/09/22 00:29:03;;;;;;;;;;;14.40;99.90;;;;;;4993895;28;19909;-78
2022/09/22 00:31:29;;;;;;;;;;;14.30;99.90;;;;;;4993667;28;19910;-78
2022/09/22 00:33:54;;;;;;;;;;;14.30;99.90;;;;;;4996516;28;19912;-78
2022/09/22 00:36:22;;;;;;;;;;;14.30;99.90;;;;;;4987089;28;19914;-78
2022/09/22 00:38:50;;;;;;;;;;;14.30;99.90;;;;;;4988048;28;19967;-79
2022/09/22 00:41:27;;;;;;;;;;;14.10;99.90;;;;;;4980780;28;19910;-78
2022/09/22 00:44:22;;;;;;;;;;;14.00;99.90;;;;;;4988122;28;19917;-79
2022/09/22 00:47:03;;;;;;;;;;;13.90;99.90;;;;;;4953966;28;19916;-78
2022/09/22 00:49:49;;;;;;;;;;;14.00;99.90;;;;;;4988446;28;19913;-78
2022/09/22 00:52:18;;;;;;;;;;;14.00;99.90;;;;;;4963713;28;20351;-78
2022/09/22 00:54:44;;;;;;;;;;;14.00;99.90;;;;;;4987204;28;20008;-78
2022/09/22 00:57:15;;;;;;;;;;;14.00;99.90;;;;;;4988469;28;19930;-78
2022/09/22 00:59:42;;;;;;;;;;;14.00;99.90;;;;;;4997488;28;19914;-78
2022/09/22 01:02:09;;;;;;;;;;;14.00;99.90;;;;;;4986729;28;20342;-78
2022/09/22 01:04:35;;;;;;;;;;;14.00;99.90;;;;;;4987178;28;20060;-79
2022/09/22 01:07:01;;;;;;;;;;;14.00;99.90;;;;;;4987616;28;19913;-79
2022/09/22 01:09:28;;;;;;;;;;;14.00;99.90;;;;;;4992364;28;19921;-78
2022/09/22 01:11:53;;;;;;;;;;;14.00;99.90;;;;;;4992257;28;20005;-78
2022/09/22 01:14:38;;;;;;;;;;;14.00;99.90;;;;;;4987053;28;20012;-79
2022/09/22 01:17:08;;;;;;;;;;;14.10;99.90;;;;;;4985514;28;19918;-78
2022/09/22 01:19:49;;;;;;;;;;;14.20;99.90;;;;;;4987371;28;19916;-79
2022/09/22 01:22:33;;;;;;;;;;;14.20;99.90;;;;;;4988522;28;19909;-78
2022/09/22 01:25:01;;;;;;;;;;;14.20;99.90;;;;;;4995600;28;19906;-79
2022/09/22 01:27:52;;;;;;;;;;;14.20;99.90;;;;;;4995955;28;19909;-78
2022/09/22 01:30:20;;;;;;;;;;;14.10;99.90;;;;;;4963902;28;19925;-79
2022/09/22 01:33:09;;;;;;;;;;;13.90;99.90;;;;;;4985700;28;19991;-78
2022/09/22 01:35:41;;;;;;;;;;;14.00;99.90;;;;;;4986209;28;20380;-78
2022/09/22 01:38:07;;;;;;;;;;;13.90;99.90;;;;;;4989761;28;20274;-78
2022/09/22 01:40:38;;;;;;;;;;;13.70;99.90;;;;;;4996420;28;19925;-78
2022/09/22 01:43:07;;;;;;;;;;;13.60;99.90;;;;;;4980080;28;19996;-78
2022/09/22 01:45:34;;;;;;;;;;;13.50;99.90;;;;;;4991459;28;19993;-79
2022/09/22 01:48:23;;;;;;;;;;;13.40;99.90;;;;;;4992942;28;19910;-79
2022/09/22 01:50:57;;;;;;;;;;;13.40;99.90;;;;;;4978067;28;19929;-79
2022/09/22 01:53:32;;;;;;;;;;;13.40;99.90;;;;;;4988877;28;19917;-78
2022/09/22 01:56:01;;;;;;;;;;;13.50;99.90;;;;;;4991443;28;19913;-79
2022/09/22 01:58:34;;;;;;;;;;;13.50;99.90;;;;;;4991977;28;19925;-78
2022/09/22 02:01:29;;;;;;;;;;;13.70;99.90;;;;;;4990534;28;19913;-78
2022/09/22 02:03:57;;;;;;;;;;;13.70;99.90;;;;;;4970100;28;19937;-79
2022/09/22 02:06:42;;;;;;;;;;;13.70;99.90;;;;;;4996134;28;20257;-78
2022/09/22 02:09:09;;;;;;;;;;;13.70;99.90;;;;;;4978316;28;19929;-78
2022/09/22 02:11:35;;;;;;;;;;;13.70;99.90;;;;;;4978999;28;19917;-78
2022/09/22 02:14:01;;;;;;;;;;;13.70;99.90;;;;;;4996622;28;20019;-78
2022/09/22 02:16:27;;;;;;;;;;;13.70;99.90;;;;;;4987265;28;19910;-78
2022/09/22 02:18:58;;;;;;;;;;;13.70;99.90;;;;;;4987444;28;21010;-78
2022/09/22 02:21:25;;;;;;;;;;;13.70;99.90;;;;;;4987765;28;19948;-78
2022/09/22 02:23:51;;;;;;;;;;;13.60;99.90;;;;;;4995795;28;19910;-78
2022/09/22 02:26:22;;;;;;;;;;;13.50;99.90;;;;;;4988315;28;20366;-78
2022/09/22 02:29:01;;;;;;;;;;;13.50;99.90;;;;;;4990088;28;19922;-78
2022/09/22 02:31:28;;;;;;;;;;;13.50;99.90;;;;;;4972848;28;19913;-78
2022/09/22 02:33:54;;;;;;;;;;;13.60;99.90;;;;;;4990308;28;19914;-78
2022/09/22 02:36:27;;;;;;;;;;;13.50;99.90;;;;;;4969875;28;19920;-78
2022/09/22 02:39:03;;;;;;;;;;;13.40;99.90;;;;;;4989422;28;19917;-79
2022/09/22 02:41:35;;;;;;;;;;;13.40;99.90;;;;;;4990289;28;20379;-78
2022/09/22 02:44:07;;;;;;;;;;;13.40;99.90;;;;;;4975533;28;19914;-78
2022/09/22 02:46:41;;;;;;;;;;;13.20;99.90;;;;;;4998191;28;19917;-78
2022/09/22 02:49:17;;;;;;;;;;;13.20;99.90;;;;;;5000014;28;19954;-78
2022/09/22 02:51:45;;;;;;;;;;;13.20;99.90;;;;;;4996590;28;20372;-78
2022/09/22 02:54:13;;;;;;;;;;;13.20;99.90;;;;;;4999717;28;19913;-78
2022/09/22 02:56:40;;;;;;;;;;;13.30;99.90;;;;;;4996592;28;19921;-78
2022/09/22 02:59:05;;;;;;;;;;;13.50;99.90;;;;;;4978529;28;20667;-78
2022/09/22 03:01:31;;;;;;;;;;;13.60;99.90;;;;;;4990859;28;19914;-78
2022/09/22 03:03:57;;;;;;;;;;;13.60;99.90;;;;;;4991676;28;19917;-79
2022/09/22 03:06:25;;;;;;;;;;;13.70;99.90;;;;;;4992809;28;19952;-78
2022/09/22 03:08:51;;;;;;;;;;;13.70;99.90;;;;;;4981135;28;19917;-79
2022/09/22 03:11:16;;;;;;;;;;;13.70;99.90;;;;;;4974735;28;19916;-78
2022/09/22 03:13:42;;;;;;;;;;;13.80;99.90;;;;;;4990788;28;19960;-77
2022/09/22 03:16:16;;;;;;;;;;;13.80;99.90;;;;;;4987541;28;19909;-77
2022/09/22 03:18:45;;;;;;;;;;;13.80;99.90;;;;;;4989921;28;19972;-77
2022/09/22 03:21:10;;;;;;;;;;;13.70;99.90;;;;;;4989581;28;19917;-78
2022/09/22 03:23:39;;;;;;;;;;;13.70;99.90;;;;;;4987862;28;19936;-77
2022/09/22 03:26:04;;;;;;;;;;;13.80;99.90;;;;;;4988350;28;19914;-77
2022/09/22 03:28:30;;;;;;;;;;;13.80;99.90;;;;;;4995664;28;20016;-78
2022/09/22 03:30:56;;;;;;;;;;;13.80;99.90;;;;;;4995231;28;20017;-78
2022/09/22 03:33:21;;;;;;;;;;;13.80;99.90;;;;;;4989309;28;19917;-78
2022/09/22 03:35:47;;;;;;;;;;;13.70;99.90;;;;;;4987676;28;20624;-78
2022/09/22 03:38:13;;;;;;;;;;;13.70;99.90;;;;;;4987761;28;19936;-78
2022/09/22 03:40:38;;;;;;;;;;;13.60;99.90;;;;;;4972876;28;19910;-78
2022/09/22 03:43:04;;;;;;;;;;;13.60;99.90;;;;;;4988175;28;19996;-77
2022/09/22 03:45:30;;;;;;;;;;;13.60;99.90;;;;;;4988513;28;19913;-77
2022/09/22 03:47:55;;;;;;;;;;;13.60;99.90;;;;;;4988263;28;19932;-78
2022/09/22 03:50:21;;;;;;;;;;;13.60;99.90;;;;;;4987609;28;20009;-77
2022/09/22 03:52:47;;;;;;;;;;;13.50;99.90;;;;;;4988536;28;19909;-78
2022/09/22 03:55:12;;;;;;;;;;;13.60;99.90;;;;;;4986599;28;19922;-78
2022/09/22 03:57:39;;;;;;;;;;;13.60;99.90;;;;;;4987538;28;19964;-78
2022/09/22 04:00:05;;;;;;;;;;;13.60;99.90;;;;;;4986747;28;19914;-77
2022/09/22 04:02:31;;;;;;;;;;;13.60;99.90;;;;;;4986244;28;20001;-78
2022/09/22 04:04:57;;;;;;;;;;;13.60;99.90;;;;;;4985692;28;19949;-77
2022/09/22 04:07:22;;;;;;;;;;;13.60;99.90;;;;;;4984663;28;21485;-79
2022/09/22 04:09:48;;;;;;;;;;;13.50;99.90;;;;;;4991065;28;19913;-78
2022/09/22 04:12:14;;;;;;;;;;;13.50;99.90;;;;;;4995513;28;19917;-77
2022/09/22 04:14:40;;;;;;;;;;;13.60;99.90;;;;;;4984508;28;19924;-77
2022/09/22 04:17:06;;;;;;;;;;;13.60;99.90;;;;;;4992984;28;19906;-78
2022/09/22 04:19:34;;;;;;;;;;;13.50;99.90;;;;;;4986426;28;20624;-77
2022/09/22 04:22:01;;;;;;;;;;;13.50;99.90;;;;;;4985216;28;19910;-77
2022/09/22 04:24:26;;;;;;;;;;;13.50;99.90;;;;;;4985637;28;19925;-78
2022/09/22 04:26:52;;;;;;;;;;;13.40;99.90;;;;;;4987567;28;20279;-78
2022/09/22 04:29:21;;;;;;;;;;;13.30;99.90;;;;;;4970331;28;19918;-77
2022/09/22 04:31:46;;;;;;;;;;;13.30;99.90;;;;;;4968117;28;19941;-77
2022/09/22 04:34:12;;;;;;;;;;;13.30;99.90;;;;;;4985153;28;20414;-77
2022/09/22 04:36:38;;;;;;;;;;;13.30;99.90;;;;;;4968739;28;19909;-78
2022/09/22 04:39:04;;;;;;;;;;;13.30;99.90;;;;;;4995452;28;20181;-77
2022/09/22 04:41:30;;;;;;;;;;;13.10;99.90;;;;;;4990979;28;20339;-78
2022/09/22 04:44:02;;;;;;;;;;;13.20;99.90;;;;;;4993987;28;19937;-78
2022/09/22 04:46:41;;;;;;;;;;;;;;;;;;;;;
2022/09/22 04:49:07;;;;;;;;;;;13.20;99.90;;;;;;4986929;28;19921;-77
2022/09/22 04:51:35;;;;;;;;;;;13.20;99.90;;;;;;4986604;28;20000;-77
2022/09/22 04:54:01;;;;;;;;;;;13.20;99.90;;;;;;4987247;28;20370;-77
2022/09/22 04:56:29;;;;;;;;;;;13.20;99.90;;;;;;4984871;28;19918;-77
2022/09/22 04:58:58;;;;;;;;;;;13.20;99.90;;;;;;4986116;28;20023;-77
2022/09/22 05:01:26;;;;;;;;;;;13.20;99.90;;;;;;4995130;28;19910;-77
2022/09/22 05:03:52;;;;;;;;;;;13.20;99.90;;;;;;4977307;28;19917;-77
2022/09/22 05:06:17;;;;;;;;;;;13.20;99.90;;;;;;4994151;28;20047;-77
2022/09/22 05:08:43;;;;;;;;;;;13.20;99.90;;;;;;4991373;28;19913;-77
2022/09/22 05:11:09;;;;;;;;;;;13.20;99.90;;;;;;4992831;28;19999;-77
2022/09/22 05:13:39;;;;;;;;;;;13.20;99.90;;;;;;4989219;28;20291;-77
2022/09/22 05:16:07;;;;;;;;;;;13.20;99.90;;;;;;4993160;28;19910;-76
2022/09/22 05:18:33;;;;;;;;;;;13.20;99.90;;;;;;4991742;28;20013;-77
2022/09/22 05:20:59;;;;;;;;;;;13.20;99.90;;;;;;4987667;28;19920;-77
2022/09/22 05:23:25;;;;;;;;;;;13.20;99.90;;;;;;4986098;28;20359;-78
2022/09/22 05:25:50;;;;;;;;;;;13.10;99.90;;;;;;4971613;28;19949;-77
2022/09/22 05:28:16;;;;;;;;;;;13.20;99.90;;;;;;4985128;28;19929;-77
2022/09/22 05:30:42;;;;;;;;;;;13.20;99.90;;;;;;4974670;28;20189;-77
2022/09/22 05:33:07;;;;;;;;;;;13.40;99.90;;;;;;4990508;28;19933;-78
2022/09/22 05:35:33;;;;;;;;;;;13.30;99.90;;;;;;4986876;28;19910;-79
2022/09/22 05:37:59;;;;;;;;;;;13.40;99.90;;;;;;4996391;28;19910;-77
2022/09/22 05:40:25;;;;;;;;;;;13.40;99.90;;;;;;4995123;28;19910;-76
2022/09/22 05:42:51;;;;;;;;;;;13.40;99.90;;;;;;4989184;28;20352;-77
2022/09/22 05:45:18;;;;;;;;;;;13.50;99.90;;;;;;4988843;28;19910;-77
2022/09/22 05:47:45;;;;;;;;;;;13.60;99.90;;;;;;4967949;28;20003;-76
2022/09/22 05:50:11;;;;;;;;;;;13.70;99.90;;;;;;4987221;28;19933;-76
2022/09/22 05:52:37;;;;;;;;;;;13.70;99.90;;;;;;4986237;28;19917;-76
2022/09/22 05:55:03;;;;;;;;;;;13.80;99.90;;;;;;4986383;28;20371;-76
2022/09/22 05:57:30;;;;;;;;;;;13.70;99.90;;;;;;4984895;28;19914;-76
2022/09/22 05:59:56;;;;;;;;;;;13.80;99.90;;;;;;4986560;28;20036;-77
2022/09/22 06:02:23;;;;;;;;;;;13.90;99.90;;;;;;4984472;28;19918;-76
2022/09/22 06:04:49;;;;;;;;;;;13.90;99.90;;;;;;4987346;28;19924;-76
2022/09/22 06:07:15;;;;;;;;;;;13.90;99.90;;;;;;4985504;28;19910;-77
2022/09/22 06:09:40;;;;;;;;;;;14.00;99.90;;;;;;4986953;28;20008;-76
2022/09/22 06:12:07;;;;;;;;;;;14.10;99.90;;;;;;4997333;28;20291;-77
2022/09/22 06:14:33;;;;;;;;;;;14.10;99.90;;;;;;4985924;28;19996;-77
2022/09/22 06:16:59;;;;;;;;;;;14.20;99.90;;;;;;4987589;28;19945;-76
2022/09/22 06:19:27;;;;;;;;;;;14.30;99.90;;;;;;4987598;28;19971;-76
2022/09/22 06:21:53;;;;;;;;;;;14.30;99.90;;;;;;4973502;28;19910;-77
2022/09/22 06:24:19;;;;;;;;;;;14.40;99.90;;;;;;4985956;28;19917;-77
2022/09/22 06:26:45;;;;;;;;;;;14.40;99.90;;;;;;4986121;28;19917;-76
2022/09/22 06:29:10;;;;;;;;;;;14.50;99.90;;;;;;4974199;28;19917;-76
2022/09/22 06:31:38;;;;;;;;;;;14.50;99.90;;;;;;4990116;28;19910;-76
2022/09/22 06:34:04;;;;;;;;;;;14.60;99.90;;;;;;4988112;28;19917;-70
2022/09/22 06:36:30;;;;;;;;;;;14.70;99.90;;;;;;5000303;28;19994;-71
2022/09/22 06:38:57;;;;;;;;;;;14.80;99.90;;;;;;4997011;28;19985;-71
2022/09/22 06:41:24;;;;;;;;;;;14.90;99.90;;;;;;4995117;28;20268;-70
2022/09/22 06:43:51;;;;;;;;;;;15.10;99.90;;;;;;4997835;28;20375;-70
2022/09/22 06:46:17;;;;;;;;;;;15.30;99.90;;;;;;4994256;28;19921;-70
2022/09/22 06:48:44;;;;;;;;;;;15.40;99.90;;;;;;4994740;28;19984;-70
2022/09/22 06:51:09;;;;;;;;;;;15.50;99.90;;;;;;4990100;28;19918;-71
2022/09/22 06:53:35;;;;;;;;;;;15.60;99.90;;;;;;4987250;28;19917;-70
2022/09/22 06:56:04;;;;;;;;;;;15.70;99.90;;;;;;4985073;28;20384;-71
2022/09/22 06:58:31;;;;;;;;;;;15.70;99.90;;;;;;4984588;28;19993;-71
2022/09/22 07:01:04;;;;;;;;;;;15.70;99.90;;;;;;4967394;28;20017;-71
2022/09/22 07:03:32;;;;;;;;;;;15.70;99.90;;;;;;4987186;28;20354;-71
2022/09/22 07:06:02;;;;;;;;;;;15.60;99.90;;;;;;4966193;28;19990;-71
2022/09/22 07:08:29;;;;;;;;;;;15.60;99.90;;;;;;4982072;28;20194;-71
2022/09/22 07:10:56;;;;;;;;;;;15.60;99.90;;;;;;4981022;28;19909;-71
2022/09/22 07:13:22;;;;;;;;;;;15.70;99.90;;;;;;4984409;28;20013;-71
2022/09/22 07:15:48;;;;;;;;;;;15.80;99.90;;;;;;4984483;28;19964;-71
2022/09/22 07:18:14;;;;;;;;;;;15.80;99.90;;;;;;4968955;28;19910;-71
2022/09/22 07:20:40;;;;;;;;;;;15.80;99.90;;;;;;4988385;28;19913;-71
2022/09/22 07:23:20;;;;;;;;;;;16.00;99.90;;;;;;4986270;28;19937;-71
2022/09/22 07:25:59;;;;;;;;;;;16.10;99.90;;;;;;4987446;28;20146;-71
2022/09/22 07:28:27;;;;;;;;;;;16.10;99.90;;;;;;4990582;28;19916;-70
2022/09/22 07:30:56;;;;;;;;;;;16.10;99.90;;;;;;4971071;28;19910;-71
2022/09/22 07:33:22;;;;;;;;;;;16.20;99.90;;;;;;4986369;28;19964;-70
2022/09/22 07:35:57;;;;;;;;;;;16.10;99.90;;;;;;4995344;28;19917;-71
2022/09/22 07:38:31;;;;;;;;;;;16.10;99.90;;;;;;4987289;28;19965;-70
2022/09/22 07:40:58;;;;;;;;;;;16.10;99.90;;;;;;4966986;28;19910;-71
2022/09/22 07:43:24;;;;;;;;;;;16.20;99.90;;;;;;4984311;28;19925;-70
2022/09/22 07:45:53;;;;;;;;;;;16.20;99.90;;;;;;4983618;28;20001;-70
2022/09/22 07:48:40;;;;;;;;;;;16.30;99.90;;;;;;4988072;28;19914;-69
2022/09/22 07:51:44;;;;;;;;;;;16.30;99.90;;;;;;4973035;28;19913;-70
2022/09/22 07:54:09;;;;;;;;;;;16.30;99.90;;;;;;4981438;28;19916;-70
2022/09/22 07:56:40;;;;;;;;;;;16.30;99.90;;;;;;4978137;28;19918;-70
2022/09/22 07:59:09;;;;;;;;;;;16.40;99.90;;;;;;4986668;28;19916;-71
2022/09/22 08:01:35;;;;;;;;;;;16.40;99.90;;;;;;4965097;28;20001;-70
2022/09/22 08:04:00;;;;;;;;;;;16.40;99.90;;;;;;4988047;28;19910;-71
2022/09/22 08:06:27;;;;;;;;;;;16.50;99.90;;;;;;4986792;28;20371;-72
2022/09/22 08:08:55;;;;;;;;;;;16.60;99.90;;;;;;4989568;28;21169;-71
2022/09/22 08:11:22;;;;;;;;;;;16.50;99.90;;;;;;4968196;28;19969;-70
2022/09/22 08:13:51;;;;;;;;;;;16.60;99.90;;;;;;4990119;28;19910;-71
2022/09/22 08:16:17;;;;;;;;;;;16.60;99.90;;;;;;4993868;28;19910;-71
2022/09/22 08:18:43;;;;;;;;;;;16.80;99.90;;;;;;4990688;28;19932;-72
2022/09/22 08:21:09;;;;;;;;;;;16.80;99.90;;;;;;4990709;28;20443;-71
2022/09/22 08:23:36;;;;;;;;;;;17.00;99.90;;;;;;4993441;28;20319;-71
2022/09/22 08:26:04;;;;;;;;;;;17.00;99.90;;;;;;4985251;28;19913;-70
2022/09/22 08:28:30;;;;;;;;;;;17.20;99.90;;;;;;4992534;28;19910;-70
2022/09/22 08:30:56;;;;;;;;;;;17.30;99.90;;;;;;4990715;28;20287;-71
2022/09/22 08:33:22;;;;;;;;;;;17.20;99.90;;;;;;4987438;28;19981;-70
2022/09/22 08:35:58;;;;;;;;;;;17.10;99.90;;;;;;4992642;28;20020;-71
2022/09/22 08:38:26;;;;;;;;;;;17.10;99.90;;;;;;4991410;28;20229;-71
2022/09/22 08:40:57;;;;;;;;;;;17.10;99.90;;;;;;4992001;28;19910;-70
2022/09/22 08:43:23;;;;;;;;;;;17.00;99.90;;;;;;4994369;28;20292;-71
2022/09/22 08:45:49;;;;;;;;;;;17.00;99.90;;;;;;4987009;28;19954;-71
2022/09/22 08:51:51;;;;;;;;;;;17.10;99.90;;;;;;4993259;28;19945;-71
2022/09/22 08:54:17;;;;;;;;;;;17.20;99.90;;;;;;4992431;28;19930;-71
2022/09/22 08:56:45;;;;;;;;;;;17.20;99.90;;;;;;4972907;28;20279;-70
2022/09/22 08:59:11;;;;;;;;;;;17.30;99.90;;;;;;4990191;28;20281;-70
2022/09/22 09:02:00;;;;;;;;;;;17.40;99.90;;;;;;4993178;28;19956;-70
2022/09/22 09:04:44;;;;;;;;;;;17.40;99.90;;;;;;4989232;28;19909;-71
2022/09/22 09:07:12;;;;;;;;;;;17.60;99.90;;;;;;4974249;28;19947;-70
2022/09/22 09:09:41;;;;;;;;;;;17.70;99.90;;;;;;4971505;28;19920;-70
2022/09/22 09:12:29;;;;;;;;;;;17.80;99.90;;;;;;4992159;28;19909;-70
2022/09/22 09:15:13;;;;;;;;;;;17.60;99.90;;;;;;4991313;28;19989;-70
2022/09/22 09:17:39;;;;;;;;;;;17.30;99.90;;;;;;4990944;28;19910;-71
2022/09/22 09:20:23;;;;;;;;;;;17.40;99.90;;;;;;4991193;28;19932;-71
2022/09/22 09:22:54;;;;;;;;;;;17.50;99.90;;;;;;4992577;28;20303;-71
2022/09/22 09:25:29;;;;;;;;;;;17.60;99.90;;;;;;4990880;28;19926;-69
2022/09/22 09:27:57;;;;;;;;;;;17.60;99.90;;;;;;4991747;28;19910;-69
2022/09/22 09:30:23;;;;;;;;;;;17.60;99.90;;;;;;4986850;28;19920;-70
2022/09/22 09:32:53;;;;;;;;;;;17.70;99.90;;;;;;4990215;28;19996;-71
2022/09/22 09:35:42;;;;;;;;;;;17.70;99.90;;;;;;4992002;28;19918;-71
2022/09/22 09:38:13;;;;;;;;;;;17.80;99.90;;;;;;4990974;28;19913;-70
2022/09/22 09:40:39;;;;;;;;;;;18.10;99.90;;;;;;4992841;28;19910;-71
2022/09/22 09:43:06;;;;;;;;;;;18.00;99.90;;;;;;4992619;28;19906;-71
2022/09/22 09:45:35;;;;;;;;;;;18.00;99.90;;;;;;4993139;28;19959;-69
2022/09/22 09:48:24;;;;;;;;;;;18.00;99.90;;;;;;4991132;28;19916;-71
2022/09/22 09:50:49;;;;;;;;;;;18.10;99.90;;;;;;4978774;28;19936;-70
2022/09/22 09:53:41;;;;;;;;;;;18.00;99.90;;;;;;4993541;28;19905;-70
2022/09/22 09:56:16;;;;;;;;;;;18.00;99.90;;;;;;4986466;28;19913;-71
2022/09/22 10:01:45;;;;;;;;;;;18.10;99.90;;;;;;4990299;28;19917;-71
2022/09/22 10:04:23;;;;;;;;;;;18.20;99.90;;;;;;4992874;28;19941;-70
2022/09/22 10:06:49;;;;;;;;;;;18.30;99.90;;;;;;4991859;28;19909;-70
2022/09/22 10:09:26;;;;;;;;;;;18.40;99.90;;;;;;4990715;28;19920;-70
2022/09/22 10:12:02;;;;;;;;;;;18.50;99.90;;;;;;4970602;28;19932;-70
2022/09/22 10:14:30;;;;;;;;;;;18.50;99.90;;;;;;4989351;28;20371;-70
2022/09/22 10:16:56;;;;;;;;;;;18.60;99.90;;;;;;4994764;28;19910;-70
2022/09/22 10:19:27;;;;;;;;;;;18.40;99.90;;;;;;4994404;28;19921;-70
2022/09/22 10:22:23;;;;;;;;;;;18.40;99.90;;;;;;4978070;28;19925;-71
2022/09/22 10:25:12;;;;;;;;;;;18.30;99.90;;;;;;4973207;28;19913;-71
2022/09/22 10:27:37;;;;;;;;;;;18.40;99.90;;;;;;4993488;28;19945;-69
2022/09/22 10:30:12;;;;;;;;;;;18.40;99.90;;;;;;4995481;28;19953;-69
2022/09/22 10:32:44;;;;;;;;;;;18.40;99.90;;;;;;4995075;28;20283;-69
2022/09/22 10:35:29;;;;;;;;;;;18.40;99.90;;;;;;4991023;28;19928;-69
2022/09/22 10:37:58;;;;;;;;;;;18.50;99.90;;;;;;4991395;28;19916;-70
2022/09/22 10:40:25;;;;;;;;;;;18.50;99.90;;;;;;4999821;28;19910;-70
2022/09/22 10:42:53;;;;;;;;;;;18.60;99.90;;;;;;5010083;28;19920;-70
2022/09/22 10:45:19;;;;;;;;;;;18.80;99.90;;;;;;4996173;28;19910;-71
2022/09/22 10:47:56;;;;;;;;;;;18.80;99.90;;;;;;4993441;28;19964;-70
2022/09/22 10:50:27;;;;;;;;;;;18.80;99.90;;;;;;4988713;28;19917;-72
2022/09/22 10:53:20;;;;;;;;;;;18.80;99.90;;;;;;4995927;28;20057;-70
2022/09/22 10:55:52;;;;;;;;;;;18.70;99.90;;;;;;4989405;28;19921;-70
2022/09/22 10:58:38;;;;;;;;;;;18.80;99.90;;;;;;4989949;28;19910;-71
2022/09/22 11:01:13;;;;;;;;;;;18.90;99.90;;;;;;4993378;28;20591;-71
2022/09/22 11:03:47;;;;;;;;;;;18.90;99.90;;;;;;4994344;28;20427;-70
2022/09/22 11:12:16;;;;;;;;;;;19.20;99.90;;;;;;4994420;28;20327;-70
2022/09/22 11:14:44;;;;;;;;;;;19.20;99.90;;;;;;4995573;28;19921;-70
2022/09/22 11:17:33;;;;;;;;;;;19.20;99.90;;;;;;4986200;28;19909;-70
2022/09/22 11:20:15;;;;;;;;;;;19.40;99.90;;;;;;4976844;28;20383;-70
2022/09/22 11:22:41;;;;;;;;;;;19.50;99.90;;;;;;4994653;28;19906;-69
2022/09/22 11:25:26;;;;;;;;;;;19.50;99.90;;;;;;4992426;28;19920;-71
2022/09/22 11:28:01;;;;;;;;;;;19.60;99.90;;;;;;4992105;28;19914;-71
2022/09/22 11:30:29;;;;;;;;;;;19.70;99.90;;;;;;4993121;28;19914;-70
2022/09/22 11:33:10;;;;;;;;;;;19.80;99.90;;;;;;4987278;28;20380;-72
2022/09/22 11:35:59;;;;;;;;;;;19.80;99.90;;;;;;4988440;28;19917;-71
2022/09/22 11:38:31;;;;;;;;;;;19.80;99.90;;;;;;4990956;28;19965;-71
2022/09/22 11:41:12;;;;;;;;;;;19.60;99.90;;;;;;4994265;28;20000;-70
2022/09/22 11:43:41;;;;;;;;;;;19.50;99.90;;;;;;4994025;28;19972;-70
2022/09/22 11:46:15;;;;;;;;;;;19.60;99.90;;;;;;4993863;28;19916;-70
2022/09/22 11:49:07;;;;;;;;;;;19.60;99.90;;;;;;4993616;28;19909;-71
2022/09/22 11:51:36;;;;;;;;;;;19.50;99.90;;;;;;4964081;28;20454;-71
2022/09/22 11:54:16;;;;;;;;;;;19.30;99.90;;;;;;4993823;28;20095;-70
2022/09/22 11:56:50;;;;;;;;;;;19.40;99.90;;;;;;4988764;28;20059;-71
2022/09/22 11:59:23;;;;;;;;;;;19.40;99.90;;;;;;4969040;28;19971;-70
2022/09/22 12:01:50;;;;;;;;;;;19.40;99.90;;;;;;4977016;28;19997;-71
2022/09/22 12:04:28;;;;;;;;;;;19.30;99.90;;;;;;4994999;28;19996;-71
2022/09/22 12:06:55;;;;;;;;;;;19.40;99.90;;;;;;4979606;28;19913;-70
2022/09/22 12:09:33;;;;;;;;;;;19.50;99.90;;;;;;4990339;28;19991;-71
2022/09/22 12:12:01;;;;;;;;;;;19.50;99.90;;;;;;4988270;28;19910;-70
2022/09/22 12:14:26;;;;;;;;;;;19.70;99.90;;;;;;4993264;28;20052;-71
2022/09/22 12:16:55;;;;;;;;;;;19.60;99.20;;;;;;4994573;28;19965;-69
2022/09/22 12:19:33;;;;;;;;;;;19.50;99.70;;;;;;4990224;28;20327;-70
2022/09/22 12:22:12;;;;;;;;;;;19.50;99.90;;;;;;4993519;28;19906;-70
2022/09/22 12:24:38;;;;;;;;;;;19.60;99.90;;;;;;4991563;28;19957;-70
2022/09/22 12:27:11;;;;;;;;;;;19.50;99.90;;;;;;4990174;28;19917;-71
2022/09/22 12:29:37;;;;;;;;;;;19.40;99.60;;;;;;4987659;28;19921;-70
2022/09/22 12:32:03;;;;;;;;;;;19.50;99.80;;;;;;4991293;28;19916;-70
2022/09/22 12:34:32;;;;;;;;;;;19.70;99.90;;;;;;4992031;28;19910;-70
2022/09/22 12:37:07;;;;;;;;;;;19.80;99.90;;;;;;4992019;28;19914;-70
2022/09/22 12:39:37;;;;;;;;;;;19.90;99.60;;;;;;4988375;28;20414;-71
2022/09/22 12:42:15;;;;;;;;;;;19.90;99.50;;;;;;4988652;28;19925;-70
2022/09/22 12:44:48;;;;;;;;;;;20.00;99.60;;;;;;4995135;28;20015;-70
2022/09/22 12:47:22;;;;;;;;;;;20.00;99.70;;;;;;4991931;28;19916;-70
2022/09/22 12:49:54;;;;;;;;;;;20.10;99.90;;;;;;4991712;28;20011;-70
2022/09/22 12:52:53;;;;;;;;;;;20.20;99.20;;;;;;4986006;28;19910;-70
2022/09/22 12:55:20;;;;;;;;;;;20.20;99.40;;;;;;4927699;28;19930;-70
2022/09/22 12:57:47;;;;;;;;;;;19.90;98.90;;;;;;4991294;28;19986;-70
2022/09/22 13:00:19;;;;;;;;;;;19.70;99.90;;;;;;4990171;28;19914;-70
2022/09/22 13:02:46;;;;;;;;;;;19.70;99.60;;;;;;4990622;28;20182;-70
2022/09/22 13:05:23;;;;;;;;;;;19.80;99.90;;;;;;4989312;28;19957;-70
2022/09/22 13:07:49;;;;;;;;;;;19.90;99.90;;;;;;4990915;28;19933;-70
2022/09/22 13:10:21;;;;;;;;;;;19.90;99.90;;;;;;4990334;28;19918;-70
2022/09/22 13:13:04;;;;;;;;;;;20.10;99.60;;;;;;4992059;28;19909;-70
2022/09/22 13:15:30;;;;;;;;;;;20.10;99.30;;;;;;4989731;28;19956;-70
2022/09/22 13:17:57;;;;;;;;;;;20.10;98.70;;;;;;4991573;28;19909;-70
2022/09/22 13:20:33;;;;;;;;;;;20.20;99.20;;;;;;4991792;28;19921;-70
2022/09/22 13:23:11;;;;;;;;;;;19.90;99.60;;;;;;4990792;28;20402;-70
2022/09/22 13:25:37;;;;;;;;;;;19.90;99.80;;;;;;4992282;28;19944;-71
2022/09/22 13:28:09;;;;;;;;;;;19.90;99.90;;;;;;4989366;28;19993;-70
2022/09/22 13:30:36;;;;;;;;;;;19.90;99.90;;;;;;4992042;28;19961;-70
2022/09/22 13:33:02;;;;;;;;;;;20.00;99.30;;;;;;4991069;28;19945;-72
2022/09/22 13:35:33;;;;;;;;;;;20.10;99.20;;;;;;4991138;28;19960;-69
2022/09/22 13:37:59;;;;;;;;;;;20.20;98.40;;;;;;4985678;28;19918;-69
2022/09/22 13:40:26;;;;;;;;;;;20.30;98.60;;;;;;4990882;28;19910;-69
2022/09/22 13:42:53;;;;;;;;;;;20.20;98.80;;;;;;4990865;28;19913;-69
2022/09/22 13:45:22;;;;;;;;;;;20.30;98.80;;;;;;4992356;28;20259;-70
2022/09/22 13:47:49;;;;;;;;;;;20.20;98.70;;;;;;4992500;28;19905;-69
2022/09/22 13:50:16;;;;;;;;;;;20.20;99.30;;;;;;4993464;28;20371;-69
2022/09/22 13:52:43;;;;;;;;;;;20.20;98.20;;;;;;4993695;28;19922;-69
2022/09/22 13:55:13;;;;;;;;;;;20.00;97.20;;;;;;4978597;28;19914;-68
2022/09/22 13:57:40;;;;;;;;;;;19.90;97.30;;;;;;4994857;28;19917;-69
2022/09/22 14:00:07;;;;;;;;;;;20.00;98.50;;;;;;4994600;28;19909;-69
2022/09/22 14:02:33;;;;;;;;;;;20.00;98.00;;;;;;4994596;28;19921;-69
2022/09/22 14:05:00;;;;;;;;;;;20.10;96.80;;;;;;4977854;28;20283;-69
2022/09/22 14:07:31;;;;;;;;;;;20.00;96.60;;;;;;4991525;28;19916;-69
2022/09/22 14:09:58;;;;;;;;;;;20.00;96.70;;;;;;4992803;28;19913;-69
2022/09/22 14:12:26;;;;;;;;;;;20.10;97.40;;;;;;4996015;28;19906;-69
2022/09/22 14:14:52;;;;;;;;;;;20.30;97.80;;;;;;4990594;28;20374;-69
2022/09/22 14:17:25;;;;;;;;;;;20.40;97.00;;;;;;4993682;28;20017;-69
2022/09/22 14:19:58;;;;;;;;;;;20.50;97.10;;;;;;4994138;28;19960;-69
2022/09/22 14:22:25;;;;;;;;;;;20.50;96.80;;;;;;4982313;28;19910;-70
2022/09/22 14:24:54;;;;;;;;;;;20.50;96.40;;;;;;4988028;28;20252;-69
2022/09/22 14:27:22;;;;;;;;;;;20.60;96.90;;;;;;4996047;28;19909;-68
2022/09/22 14:29:49;;;;;;;;;;;20.50;96.40;;;;;;4996106;28;19988;-69
2022/09/22 14:32:29;;;;;;;;;;;20.40;96.30;;;;;;4996690;28;19906;-69
2022/09/22 14:34:57;;;;;;;;;;;20.50;96.60;;;;;;4995423;28;19910;-69
2022/09/22 14:37:31;;;;;;;;;;;20.30;96.60;;;;;;4996222;28;19949;-69
2022/09/22 14:39:57;;;;;;;;;;;20.30;97.10;;;;;;4992819;28;19951;-69
2022/09/22 14:42:27;;;;;;;;;;;20.40;97.40;;;;;;4978715;28;19966;-69
2022/09/22 14:45:03;;;;;;;;;;;20.60;97.20;;;;;;4987172;28;19919;-69
2022/09/22 14:47:31;;;;;;;;;;;20.70;96.90;;;;;;4981579;28;20056;-69
2022/09/22 14:50:08;;;;;;;;;;;20.80;96.40;;;;;;4972635;28;20012;-69